Time;durP1;ratioP1;P1;durP2;ratioP2;P2;SDS_P1;SDS_P2;PMS_P1;PMS_P2;Temp;Humidity;BMP_temperature;BMP_pressure;BME280_temperature;BME280_humidity;BME280_pressure;Samples;Min_cycle;Max_cycle;Signal;HPM_P1;HPM_P2
2022/11/16 00:01:52;;;;;;;40.65;37.92;;;8.70;99.90;;;;;;5060915;28;20027;-76
2022/11/16 00:04:18;;;;;;;0.82;0.82;;;8.70;99.90;;;;;;5063463;28;20028;-76
2022/11/16 00:06:45;;;;;;;0.75;0.75;;;8.70;99.90;;;;;;5066406;28;20020;-76
2022/11/16 00:09:21;;;;;;;0.85;0.85;;;8.60;99.90;;;;;;5063607;28;20021;-76
2022/11/16 00:11:56;;;;;;;0.10;0.10;;;8.70;99.90;;;;;;5060532;28;20036;-76
2022/11/16 00:14:25;;;;;;;0.10;0.10;;;8.80;99.90;;;;;;5064217;28;20032;-76
2022/11/16 00:16:51;;;;;;;0.88;0.88;;;8.70;99.90;;;;;;5061628;28;20036;-76
2022/11/16 00:19:17;;;;;;;0.05;0.05;;;;;;;;;;5065832;28;20028;-76
2022/11/16 00:21:43;;;;;;;0.10;0.10;;;8.70;99.90;;;;;;5064573;28;20479;-76
2022/11/16 00:24:14;;;;;;;0.10;0.10;;;8.80;99.90;;;;;;5065611;28;20051;-77
2022/11/16 00:26:40;;;;;;;0.10;0.10;;;8.80;99.90;;;;;;5058472;28;20024;-76
2022/11/16 00:29:17;;;;;;;0.10;0.10;;;8.90;99.90;;;;;;5064023;28;20039;-76
2022/11/16 00:31:43;;;;;;;0.10;0.10;;;8.90;99.90;;;;;;5063969;28;20075;-76
2022/11/16 00:34:09;;;;;;;0.10;0.10;;;9.00;99.90;;;;;;5063248;28;20680;-76
2022/11/16 00:36:35;;;;;;;0.10;0.10;;;9.00;99.90;;;;;;5063323;28;20052;-76
2022/11/16 00:39:02;;;;;;;71.88;67.75;;;8.90;99.90;;;;;;5064783;28;20380;-76
2022/11/16 00:41:29;;;;;;;0.65;0.65;;;9.00;99.90;;;;;;5061879;28;20252;-76
2022/11/16 00:43:54;;;;;;;0.10;0.10;;;9.10;99.90;;;;;;5061382;28;20225;-77
2022/11/16 00:46:21;;;;;;;0.10;0.10;;;9.10;99.90;;;;;;5066499;28;20033;-76
2022/11/16 00:48:47;;;;;;;0.32;0.32;;;9.10;99.90;;;;;;5063941;28;20059;-76
2022/11/16 00:51:13;;;;;;;0.20;0.20;;;9.10;99.90;;;;;;5062074;28;20035;-76
2022/11/16 00:53:40;;;;;;;0.25;0.25;;;9.10;99.90;;;;;;5064677;28;20066;-76
2022/11/16 00:56:09;;;;;;;0.40;0.40;;;9.20;99.90;;;;;;5066548;28;20021;-77
2022/11/16 00:58:35;;;;;;;0.17;0.17;;;9.20;99.90;;;;;;5070482;28;20029;-77
2022/11/16 01:01:05;;;;;;;0.10;0.10;;;9.20;99.90;;;;;;5064436;28;20024;-77
2022/11/16 01:03:32;;;;;;;0.90;0.90;;;8.20;99.90;;;;;;5061240;28;20041;-76
2022/11/16 01:06:04;;;;;;;0.10;0.10;;;9.20;99.90;;;;;;5062651;28;20024;-76
2022/11/16 01:08:31;;;;;;;0.20;0.20;;;9.10;99.90;;;;;;5062474;28;20021;-76
2022/11/16 01:12:07;;;;;;;0.20;0.20;;;9.10;99.90;;;;;;5070179;28;20114;-76
2022/11/16 01:13:43;;;;;;;5.35;5.15;;;9.20;99.90;;;;;;5065795;28;20584;-76
2022/11/16 01:16:22;;;;;;;0.13;0.13;;;9.20;99.90;;;;;;5066018;28;20345;-76
2022/11/16 01:18:50;;;;;;;0.10;0.10;;;9.20;99.90;;;;;;5063578;28;20498;-77
2022/11/16 01:21:16;;;;;;;0.10;0.10;;;9.30;99.90;;;;;;5065597;28;20013;-76
2022/11/16 01:23:45;;;;;;;0.10;0.10;;;9.30;99.90;;;;;;5063048;28;20028;-77
2022/11/16 01:26:11;;;;;;;0.20;0.20;;;9.20;99.90;;;;;;5067309;28;20033;-77
2022/11/16 01:28:37;;;;;;;0.10;0.10;;;9.20;99.90;;;;;;5066710;28;20512;-77
2022/11/16 01:31:03;;;;;;;0.20;0.20;;;9.30;99.90;;;;;;5065159;28;20018;-76
2022/11/16 01:33:29;;;;;;;0.15;0.15;;;9.40;99.90;;;;;;5065301;28;20370;-76
2022/11/16 01:35:56;;;;;;;0.35;0.35;;;9.30;99.90;;;;;;5063808;28;20020;-77
2022/11/16 01:38:23;;;;;;;0.10;0.10;;;9.40;99.90;;;;;;5077286;28;20076;-76
2022/11/16 01:40:52;;;;;;;0.43;0.43;;;9.40;99.90;;;;;;5066070;28;20461;-76
2022/11/16 01:43:21;;;;;;;0.90;0.90;;;9.50;99.90;;;;;;5065193;28;20456;-76
2022/11/16 01:45:47;;;;;;;0.10;0.10;;;9.50;99.90;;;;;;5065596;28;20016;-76
2022/11/16 01:48:19;;;;;;;0.38;0.38;;;9.60;99.90;;;;;;5067037;28;20449;-77
2022/11/16 01:50:46;;;;;;;0.10;0.10;;;9.60;99.90;;;;;;5063604;28;20025;-77
2022/11/16 01:53:13;;;;;;;0.10;0.10;;;9.60;99.90;;;;;;5067241;28;20017;-77
2022/11/16 01:55:41;;;;;;;0.20;0.20;;;9.60;99.90;;;;;;5064649;28;20031;-77
2022/11/16 01:58:08;;;;;;;1.42;1.42;;;9.60;99.90;;;;;;5068070;28;20013;-77
2022/11/16 02:00:34;;;;;;;0.10;0.10;;;9.60;99.90;;;;;;5066844;28;20028;-77
2022/11/16 02:03:00;;;;;;;0.20;0.20;;;6.60;99.90;;;;;;5066819;28;20289;-76
2022/11/16 02:05:50;;;;;;;0.10;0.10;;;9.80;99.90;;;;;;5074189;28;20101;-77
2022/11/16 02:11:43;;;;;;;0.10;0.10;;;10.00;99.90;;;;;;5064129;28;20035;-77
2022/11/16 02:14:09;;;;;;;0.10;0.10;;;10.10;99.90;;;;;;5066265;28;20037;-76
2022/11/16 02:16:48;;;;;;;0.30;0.30;;;10.20;99.90;;;;;;5063254;28;20085;-77
2022/11/16 02:19:49;;;;;;;0.10;0.10;;;10.30;99.90;;;;;;5067222;28;20046;-77
2022/11/16 02:22:21;;;;;;;0.10;0.10;;;10.40;99.90;;;;;;5055338;28;20071;-77
2022/11/16 02:24:59;;;;;;;0.10;0.10;;;10.50;99.90;;;;;;5066516;28;20243;-77
2022/11/16 02:27:46;;;;;;;0.10;0.10;;;10.50;99.90;;;;;;5065887;28;20023;-76
2022/11/16 02:30:12;;;;;;;0.10;0.10;;;10.40;99.90;;;;;;5067028;28;20119;-77
2022/11/16 02:32:41;;;;;;;0.10;0.10;;;10.40;99.90;;;;;;5064975;28;20552;-77
2022/11/16 02:35:17;;;;;;;0.10;0.10;;;10.50;99.90;;;;;;5064634;28;20036;-76
2022/11/16 02:38:06;;;;;;;0.10;0.10;;;10.70;99.90;;;;;;5063860;28;20032;-76
2022/11/16 02:40:36;;;;;;;0.10;0.10;;;10.70;99.90;;;;;;5064280;28;20403;-77
2022/11/16 02:43:29;;;;;;;0.10;0.10;;;10.70;99.90;;;;;;5069203;28;20071;-77
2022/11/16 02:45:59;;;;;;;0.20;0.20;;;10.70;99.90;;;;;;5060895;28;20319;-77
2022/11/16 02:48:33;;;;;;;0.20;0.20;;;10.70;99.90;;;;;;5063811;28;20032;-77
2022/11/16 02:50:59;;;;;;;;;;;10.70;99.90;;;;;;5070759;28;20020;-78
2022/11/16 02:53:25;;;;;;;0.20;0.20;;;10.60;99.90;;;;;;5070419;28;20301;-77
2022/11/16 02:55:52;;;;;;;0.15;0.15;;;10.60;99.90;;;;;;5064392;28;20020;-76
2022/11/16 02:58:21;;;;;;;0.15;0.15;;;10.60;99.90;;;;;;5065632;28;20021;-78
2022/11/16 03:01:05;;;;;;;0.10;0.10;;;10.20;99.90;;;;;;5063093;28;20016;-77
2022/11/16 03:03:49;;;;;;;0.20;0.20;;;10.60;99.90;;;;;;5062095;28;20041;-77
2022/11/16 03:06:28;;;;;;;0.10;0.10;;;10.60;99.90;;;;;;5063238;28;20480;-77
2022/11/16 03:09:19;;;;;;;0.30;0.30;;;10.70;99.90;;;;;;5061901;28;20063;-77
2022/11/16 03:11:59;;;;;;;0.20;0.20;;;10.70;99.90;;;;;;5065870;28;20024;-77
2022/11/16 03:14:52;;;;;;;0.20;0.20;;;10.70;99.90;;;;;;5062951;28;20040;-76
2022/11/16 03:17:33;;;;;;;0.20;0.20;;;10.80;99.90;;;;;;5061927;28;20047;-77
2022/11/16 03:20:21;;;;;;;0.10;0.10;;;10.90;99.90;;;;;;5065522;28;20471;-76
2022/11/16 03:22:52;;;;;;;0.10;0.10;;;10.90;99.90;;;;;;5064378;28;20048;-77
2022/11/16 03:25:21;;;;;;;0.20;0.20;;;11.10;99.90;;;;;;5071402;28;20028;-77
2022/11/16 03:27:55;;;;;;;0.20;0.20;;;11.10;99.90;;;;;;5065175;28;20025;-78
2022/11/16 03:30:24;;;;;;;0.10;0.10;;;11.00;99.90;;;;;;5062462;28;20028;-77
2022/11/16 03:32:53;;;;;;;0.20;0.20;;;10.90;99.90;;;;;;5061233;28;20620;-76
2022/11/16 03:35:38;;;;;;;0.20;0.20;;;10.90;99.90;;;;;;5068781;28;20035;-79
2022/11/16 03:38:07;;;;;;;0.15;0.15;;;10.80;99.90;;;;;;5061241;28;20228;-77
2022/11/16 03:40:35;;;;;;;0.10;0.10;;;10.90;99.90;;;;;;5062715;28;20089;-77
2022/11/16 03:43:03;;;;;;;1.67;1.67;;;10.80;99.90;;;;;;5063240;28;20040;-77
2022/11/16 03:45:31;;;;;;;0.20;0.20;;;10.70;99.90;;;;;;5062422;28;20096;-76
2022/11/16 03:47:56;;;;;;;0.20;0.20;;;10.70;99.90;;;;;;5065502;28;20528;-76
2022/11/16 03:50:22;;;;;;;0.73;0.73;;;10.80;99.90;;;;;;5064739;28;20025;-78
2022/11/16 03:52:48;;;;;;;0.20;0.20;;;10.90;99.90;;;;;;5062565;28;20028;-77
2022/11/16 03:55:14;;;;;;;0.20;0.20;;;10.90;99.90;;;;;;5063636;28;20451;-77
2022/11/16 03:57:42;;;;;;;0.20;0.20;;;10.90;99.90;;;;;;5065546;28;20070;-77
2022/11/16 04:00:09;;;;;;;4.43;4.15;;;10.90;99.90;;;;;;5065400;28;20051;-78
2022/11/16 04:02:34;;;;;;;0.20;0.20;;;11.00;99.90;;;;;;5063614;28;20041;-78
2022/11/16 04:24:25;;;;;;;0.20;0.20;;;11.30;99.90;;;;;;5062920;28;20040;-76
2022/11/16 04:29:49;;;;;;;0.20;0.20;;;11.20;99.90;;;;;;5061836;28;20113;-75
2022/11/16 04:37:53;;;;;;;0.20;0.20;;;11.10;99.90;;;;;;5061035;28;20539;-75
2022/11/16 04:40:24;;;;;;;0.20;0.20;;;11.20;99.90;;;;;;5066548;28;20059;-76
2022/11/16 04:42:54;;;;;;;0.20;0.20;;;11.10;99.90;;;;;;5065692;28;20024;-76
2022/11/16 04:48:05;;;;;;;0.20;0.20;;;11.20;99.90;;;;;;5067806;28;20116;-77
2022/11/16 04:50:45;;;;;;;0.20;0.20;;;11.10;99.90;;;;;;5067025;28;20334;-76
2022/11/16 04:53:16;;;;;;;0.20;0.20;;;11.20;99.90;;;;;;5069201;28;20029;-77
2022/11/16 04:55:41;;;;;;;0.13;0.13;;;11.30;99.90;;;;;;5069750;28;20301;-77
2022/11/16 04:58:08;;;;;;;0.10;0.10;;;11.40;99.90;;;;;;5065749;28;20040;-77
2022/11/16 05:00:34;;;;;;;0.10;0.10;;;11.30;99.90;;;;;;5067813;28;20016;-78
2022/11/16 05:03:03;;;;;;;0.10;0.10;;;11.40;99.90;;;;;;5072497;28;20079;-78
2022/11/16 05:05:29;;;;;;;0.10;0.10;;;11.50;99.90;;;;;;5071410;28;20038;-77
2022/11/16 05:07:55;;;;;;;0.20;0.20;;;11.50;99.90;;;;;;5071399;28;20203;-78
2022/11/16 05:10:21;;;;;;;0.10;0.10;;;11.50;99.90;;;;;;5069100;28;20270;-77
2022/11/16 05:12:47;;;;;;;0.10;0.10;;;11.70;99.90;;;;;;5066674;28;20056;-79
2022/11/16 05:15:13;;;;;;;0.10;0.10;;;11.70;99.90;;;;;;5065829;28;20031;-77
2022/11/16 05:17:38;;;;;;;0.13;0.13;;;11.80;99.90;;;;;;5069725;28;20039;-78
2022/11/16 05:22:55;;;;;;;0.10;0.10;;;11.90;99.90;;;;;;5071006;28;20059;-75
2022/11/16 05:25:30;;;;;;;0.10;0.10;;;12.00;99.90;;;;;;5069902;28;20078;-77
2022/11/16 05:27:55;;;;;;;0.20;0.20;;;12.00;99.90;;;;;;5068508;28;20035;-77
2022/11/16 05:30:27;;;;;;;0.20;0.20;;;12.00;99.90;;;;;;5071105;28;20111;-77
2022/11/16 05:32:53;;;;;;;0.20;0.20;;;12.10;99.90;;;;;;5068520;28;20025;-77
2022/11/16 05:35:19;;;;;;;0.20;0.20;;;12.20;99.90;;;;;;5067453;28;20051;-76
2022/11/16 05:37:44;;;;;;;0.25;0.25;;;11.60;99.90;;;;;;5063667;28;20078;-76
2022/11/16 05:40:10;;;;;;;0.20;0.20;;;12.20;99.90;;;;;;5064732;28;20036;-79
2022/11/16 05:42:36;;;;;;;0.20;0.20;;;12.20;99.90;;;;;;5071796;28;20024;-75
2022/11/16 05:45:07;;;;;;;0.20;0.20;;;12.30;99.90;;;;;;5067327;28;20028;-75
2022/11/16 05:47:33;;;;;;;0.10;0.10;;;12.20;99.90;;;;;;5066924;28;20025;-75
2022/11/16 05:49:58;;;;;;;0.20;0.20;;;12.20;99.90;;;;;;5064945;28;20115;-76
2022/11/16 05:52:24;;;;;;;0.20;0.20;;;12.30;99.90;;;;;;5063767;28;20514;-76
2022/11/16 05:54:51;;;;;;;0.20;0.20;;;12.30;99.90;;;;;;5064304;28;20044;-76
2022/11/16 05:57:17;;;;;;;0.20;0.20;;;12.30;99.90;;;;;;5075232;28;20033;-75
2022/11/16 05:59:42;;;;;;;0.13;0.13;;;12.20;99.90;;;;;;5070016;28;20581;-76
2022/11/16 06:02:09;;;;;;;0.20;0.20;;;12.20;99.90;;;;;;5067773;28;20068;-75
2022/11/16 06:04:35;;;;;;;0.20;0.20;;;12.20;99.90;;;;;;5064942;28;20031;-75
2022/11/16 06:07:01;;;;;;;0.20;0.20;;;12.20;99.90;;;;;;5066845;28;20029;-76
2022/11/16 06:09:26;;;;;;;0.13;0.13;;;10.20;99.90;;;;;;5069953;28;20047;-82
2022/11/16 06:11:52;;;;;;;0.20;0.20;;;12.10;99.90;;;;;;5064394;28;20124;-76
2022/11/16 06:14:18;;;;;;;2.85;2.75;;;12.00;99.90;;;;;;5075995;28;20023;-76
2022/11/16 06:16:43;;;;;;;0.20;0.20;;;11.90;99.90;;;;;;5065012;28;20176;-76
2022/11/16 06:19:09;;;;;;;0.17;0.17;;;11.80;99.90;;;;;;5061320;28;20139;-75
2022/11/16 06:21:35;;;;;;;2.42;2.33;;;11.80;99.90;;;;;;5064824;28;20731;-75
2022/11/16 06:24:04;;;;;;;0.20;0.20;;;11.80;99.90;;;;;;5063920;28;20041;-75
2022/11/16 06:26:30;;;;;;;0.10;0.10;;;11.80;99.90;;;;;;5062088;28;20220;-75
2022/11/16 06:28:56;;;;;;;0.20;0.20;;;11.90;99.90;;;;;;5064461;28;20078;-75
2022/11/16 06:31:21;;;;;;;0.68;0.68;;;11.90;99.90;;;;;;5067931;28;20024;-76
2022/11/16 06:33:47;;;;;;;0.20;0.20;;;11.80;99.90;;;;;;5062310;28;20032;-75
2022/11/16 06:36:13;;;;;;;0.13;0.13;;;11.70;99.90;;;;;;5065003;28;20025;-76
2022/11/16 06:38:39;;;;;;;1.45;1.45;;;11.70;99.90;;;;;;5064741;28;20538;-75
2022/11/16 06:41:04;;;;;;;1.52;1.52;;;11.70;99.90;;;;;;5063317;28;20514;-75
2022/11/16 06:43:30;;;;;;;0.20;0.20;;;11.70;99.90;;;;;;5068710;28;20029;-75
2022/11/16 06:45:58;;;;;;;0.60;0.60;;;11.70;99.90;;;;;;5046745;28;20704;-75
2022/11/16 06:48:24;;;;;;;0.22;0.22;;;11.70;99.90;;;;;;5067550;28;20100;-75
2022/11/16 06:50:51;;;;;;;0.20;0.20;;;11.80;99.90;;;;;;5070155;28;20597;-75
2022/11/16 06:53:17;;;;;;;0.20;0.20;;;11.70;99.90;;;;;;5068456;28;20101;-77
2022/11/16 06:55:43;;;;;;;0.20;0.20;;;11.70;99.90;;;;;;5071137;28;20027;-77
2022/11/16 06:58:09;;;;;;;0.10;0.10;;;11.80;99.90;;;;;;5064844;28;20008;-77
2022/11/16 07:00:35;;;;;;;1.10;1.10;;;11.70;99.90;;;;;;5063742;28;20051;-76
2022/11/16 07:03:03;;;;;;;0.20;0.20;;;11.80;99.90;;;;;;5064203;28;20240;-76
2022/11/16 07:05:31;;;;;;;0.20;0.20;;;9.60;99.90;;;;;;5071429;28;20070;-76
2022/11/16 07:08:02;;;;;;;0.30;0.30;;;11.70;99.90;;;;;;5064565;28;20021;-75
2022/11/16 07:10:28;;;;;;;0.20;0.20;;;11.50;99.90;;;;;;5066412;28;20021;-76
2022/11/16 07:12:54;;;;;;;0.20;0.20;;;11.70;99.90;;;;;;5063891;28;20040;-75
2022/11/16 07:15:20;;;;;;;0.15;0.15;;;11.80;99.90;;;;;;5063494;28;20070;-75
2022/11/16 07:17:46;;;;;;;0.20;0.20;;;11.80;99.90;;;;;;5065721;28;20498;-75
2022/11/16 07:20:12;;;;;;;0.30;0.30;;;14.00;99.90;;;;;;5066455;28;20017;-75
2022/11/16 07:22:38;;;;;;;0.20;0.20;;;12.00;99.90;;;;;;5062230;28;20032;-77
2022/11/16 07:25:04;;;;;;;0.10;0.10;;;12.00;99.90;;;;;;5065157;28;20024;-77
2022/11/16 07:27:30;;;;;;;1.23;1.23;;;12.10;99.90;;;;;;5062874;28;20115;-78
2022/11/16 07:29:56;;;;;;;2.08;1.98;;;12.20;99.90;;;;;;5061664;28;20017;-76
2022/11/16 07:32:23;;;;;;;0.20;0.20;;;12.20;99.90;;;;;;5062198;28;20021;-78
2022/11/16 07:34:51;;;;;;;0.20;0.20;;;12.30;99.90;;;;;;5061609;28;20024;-79
2022/11/16 07:37:16;;;;;;;4.95;4.75;;;12.30;99.90;;;;;;5060975;28;20031;-79
2022/11/16 07:39:42;;;;;;;0.20;0.20;;;12.50;99.90;;;;;;5059572;28;20020;-81
2022/11/16 07:42:10;;;;;;;0.20;0.20;;;12.60;99.90;;;;;;5058815;28;20036;-76
2022/11/16 07:44:37;;;;;;;0.75;0.75;;;11.90;99.90;;;;;;5061821;28;20078;-76
2022/11/16 07:47:03;;;;;;;0.30;0.30;;;12.80;99.90;;;;;;5059457;28;20426;-79
2022/11/16 07:49:29;;;;;;;0.20;0.20;;;;;;;;;;5059754;28;20059;-76
2022/11/16 07:51:55;;;;;;;0.60;0.60;;;12.80;99.90;;;;;;5059088;28;20666;-76
2022/11/16 07:54:21;;;;;;;0.17;0.17;;;13.00;99.90;;;;;;5057651;28;20320;-77
2022/11/16 07:56:47;;;;;;;0.93;0.93;;;12.60;99.90;;;;;;5059552;28;20021;-75
2022/11/16 07:59:12;;;;;;;0.20;0.20;;;13.00;99.90;;;;;;5057263;28;20036;-79
2022/11/16 08:01:41;;;;;;;0.20;0.20;;;13.10;99.90;;;;;;5058415;28;20274;-77
2022/11/16 08:04:07;;;;;;;0.20;0.20;;;13.10;99.90;;;;;;5059275;28;20033;-76
2022/11/16 08:06:32;;;;;;;0.20;0.20;;;13.10;99.90;;;;;;5060643;28;20013;-77
2022/11/16 08:08:59;;;;;;;1.85;1.75;;;13.20;99.90;;;;;;5059786;28;20033;-77
2022/11/16 08:11:26;;;;;;;0.17;0.17;;;13.10;99.90;;;;;;5059863;28;20017;-78
2022/11/16 08:13:51;;;;;;;0.30;0.30;;;13.40;99.90;;;;;;5059727;28;20037;-81
2022/11/16 08:16:19;;;;;;;0.30;0.30;;;13.40;99.90;;;;;;5058586;28;20387;-85
2022/11/16 08:18:45;;;;;;;0.10;0.10;;;13.60;99.90;;;;;;5064945;28;20031;-84
2022/11/16 08:21:14;;;;;;;0.30;0.30;;;13.70;99.90;;;;;;5064171;28;20028;-77
2022/11/16 08:23:40;;;;;;;0.20;0.20;;;13.80;99.90;;;;;;5065265;28;20126;-77
2022/11/16 08:26:08;;;;;;;0.10;0.10;;;13.80;99.90;;;;;;5063751;28;20056;-76
2022/11/16 08:28:36;;;;;;;0.55;0.55;;;13.90;99.90;;;;;;5064394;28;20603;-77
2022/11/16 08:31:17;;;;;;;0.10;0.10;;;14.00;99.90;;;;;;5065880;28;20693;-78
2022/11/16 08:33:43;;;;;;;0.40;0.40;;;14.10;99.90;;;;;;5063547;28;20684;-76
2022/11/16 08:36:15;;;;;;;0.20;0.20;;;14.00;99.90;;;;;;5064496;28;20577;-77
2022/11/16 08:38:46;;;;;;;0.32;0.32;;;14.10;99.90;;;;;;5062665;28;20556;-77
2022/11/16 08:41:13;;;;;;;0.47;0.47;;;14.00;99.90;;;;;;5062441;28;20502;-78
2022/11/16 08:43:39;;;;;;;0.60;0.60;;;14.00;99.90;;;;;;5063829;28;20071;-93
2022/11/16 08:46:09;;;;;;;0.38;0.38;;;14.00;99.90;;;;;;5065405;28;20024;-77
2022/11/16 08:48:36;;;;;;;0.20;0.20;;;14.00;99.90;;;;;;5064533;28;20021;-76
2022/11/16 08:51:13;;;;;;;0.20;0.20;;;14.00;99.90;;;;;;5064855;28;20028;-76
2022/11/16 08:53:39;;;;;;;0.10;0.10;;;14.00;99.90;;;;;;5063186;28;20031;-76
2022/11/16 08:56:13;;;;;;;0.10;0.10;;;14.00;99.90;;;;;;5065994;28;20092;-77
2022/11/16 08:58:42;;;;;;;0.20;0.20;;;14.00;99.90;;;;;;5065406;28;20021;-80
2022/11/16 09:01:17;;;;;;;0.20;0.20;;;14.00;99.90;;;;;;5067600;28;20009;-79
2022/11/16 09:03:44;;;;;;;0.20;0.20;;;14.00;99.90;;;;;;5062251;28;20163;-79
2022/11/16 09:06:11;;;;;;;0.43;0.43;;;14.00;99.90;;;;;;5061836;28;20025;-76
2022/11/16 09:08:39;;;;;;;0.10;0.10;;;14.00;99.90;;;;;;5064602;28;20028;-78
2022/11/16 09:11:06;;;;;;;0.20;0.20;;;14.10;99.90;;;;;;5044552;28;20573;-79
2022/11/16 09:13:33;;;;;;;0.20;0.20;;;14.10;99.90;;;;;;5063963;28;20190;-76
2022/11/16 09:16:00;;;;;;;0.20;0.20;;;14.10;99.90;;;;;;5066418;28;20095;-76
2022/11/16 09:18:27;;;;;;;0.10;0.10;;;14.20;99.90;;;;;;5066751;28;20546;-77
2022/11/16 09:20:53;;;;;;;0.30;0.30;;;14.20;99.90;;;;;;5062890;28;20082;-87
2022/11/16 09:23:20;;;;;;;4.07;3.70;;;14.20;99.90;;;;;;5067254;28;20033;-77
2022/11/16 09:25:47;;;;;;;0.50;0.50;;;14.00;99.90;;;;;;5061201;28;20017;-77
2022/11/16 09:28:17;;;;;;;0.20;0.20;;;14.00;99.90;;;;;;5062509;28;20042;-76
2022/11/16 09:30:44;;;;;;;0.50;0.50;;;14.00;99.90;;;;;;5059558;28;20021;-79
2022/11/16 09:33:10;;;;;;;0.40;0.40;;;14.00;99.90;;;;;;5059882;28;20271;-77
2022/11/16 09:35:36;;;;;;;0.73;0.73;;;14.10;99.90;;;;;;5060952;28;20021;-77
2022/11/16 09:38:02;;;;;;;0.20;0.20;;;14.20;99.90;;;;;;5060663;28;20054;-81
2022/11/16 09:40:34;;;;;;;0.20;0.20;;;14.30;99.90;;;;;;5059901;28;20032;-77
2022/11/16 09:43:34;;;;;;;0.10;0.10;;;14.30;99.90;;;;;;5059852;28;20685;-76
2022/11/16 09:46:20;;;;;;;0.10;0.10;;;14.30;99.90;;;;;;5061261;28;20017;-78
2022/11/16 09:48:48;;;;;;;0.20;0.20;;;14.20;99.90;;;;;;5058044;28;20670;-86
2022/11/16 09:51:16;;;;;;;0.20;0.20;;;14.20;99.90;;;;;;5061821;28;20021;-77
2022/11/16 09:54:08;;;;;;;0.20;0.20;;;14.20;99.90;;;;;;5062330;28;20028;-77
2022/11/16 09:56:39;;;;;;;0.10;0.10;;;14.30;99.90;;;;;;4961300;28;20034;-78
2022/11/16 09:59:16;;;;;;;0.20;0.20;;;14.50;99.90;;;;;;4977574;28;20034;-77
2022/11/16 10:01:45;;;;;;;0.15;0.15;;;15.10;99.90;;;;;;4976732;28;20654;-80
2022/11/16 10:04:26;;;;;;;0.10;0.10;;;14.60;99.90;;;;;;4977056;28;20046;-78
2022/11/16 10:06:59;;;;;;;0.40;0.40;;;14.70;99.90;;;;;;4979131;28;20038;-78
2022/11/16 10:09:26;;;;;;;0.20;0.20;;;14.80;99.90;;;;;;4979491;28;20022;-76
2022/11/16 10:12:00;;;;;;;0.10;0.10;;;14.90;99.90;;;;;;4961837;28;20297;-77
2022/11/16 10:15:00;;;;;;;0.10;0.10;;;15.00;99.90;;;;;;4977042;28;20041;-79
2022/11/16 10:17:46;;;;;;;0.10;0.10;;;15.00;99.90;;;;;;4976150;28;20105;-78
2022/11/16 10:20:31;;;;;;;0.82;0.82;;;15.10;99.90;;;;;;4976799;28;20038;-76
2022/11/16 10:23:38;;;;;;;0.63;0.63;;;15.10;99.90;;;;;;4976887;28;20124;-76
2022/11/16 10:26:39;;;;;;;0.10;0.10;;;15.00;99.90;;;;;;4886724;29;20357;-77
2022/11/16 10:29:44;;;;;;;0.10;0.10;;;15.00;99.90;;;;;;4844974;29;20563;-77
2022/11/16 10:32:43;;;;;;;0.10;0.10;;;15.00;99.90;;;;;;4843652;29;20038;-76
2022/11/16 10:35:11;;;;;;;0.10;0.10;;;14.80;99.90;;;;;;4906681;29;20067;-77
2022/11/16 10:37:43;;;;;;;0.10;0.10;;;16.20;99.90;;;;;;4920787;29;20102;-78
2022/11/16 10:40:34;;;;;;;0.10;0.10;;;14.80;99.90;;;;;;4921659;29;20058;-77
2022/11/16 10:43:12;;;;;;;0.10;0.10;;;14.80;99.90;;;;;;4921278;29;20082;-77
2022/11/16 10:46:24;;;;;;;0.73;0.73;;;14.80;99.90;;;;;;4922565;29;20127;-80
2022/11/16 10:49:02;;;;;;;0.10;0.10;;;14.70;99.90;;;;;;4851963;29;20035;-76
2022/11/16 10:51:27;;;;;;;0.20;0.20;;;14.60;99.90;;;;;;4868857;29;20037;-76
2022/11/16 10:53:56;;;;;;;0.20;0.20;;;14.70;99.90;;;;;;4851684;29;20040;-76
2022/11/16 10:56:38;;;;;;;0.20;0.20;;;14.60;99.90;;;;;;4871891;29;20127;-75
2022/11/16 10:59:11;;;;;;;0.20;0.20;;;14.60;99.90;;;;;;4930961;29;20104;-78
2022/11/16 11:01:56;;;;;;;0.10;0.10;;;14.50;99.90;;;;;;4940889;29;20446;-79
2022/11/16 11:04:23;;;;;;;0.10;0.10;;;14.50;99.90;;;;;;4981822;28;20237;-78
2022/11/16 11:07:22;;;;;;;0.10;0.10;;;13.70;99.90;;;;;;4966231;28;20057;-75
2022/11/16 11:09:52;;;;;;;4.50;4.05;;;14.40;99.90;;;;;;4924891;29;20113;-78
2022/11/16 11:12:38;;;;;;;0.22;0.22;;;14.40;99.90;;;;;;4941751;29;20047;-77
2022/11/16 11:15:11;;;;;;;0.10;0.10;;;14.40;99.90;;;;;;4941419;29;20036;-79
2022/11/16 11:17:42;;;;;;;0.73;0.73;;;14.30;99.90;;;;;;4940223;29;20031;-77
2022/11/16 11:20:16;;;;;;;0.20;0.20;;;14.30;99.90;;;;;;4926361;29;20039;-78
2022/11/16 11:22:56;;;;;;;0.10;0.10;;;14.30;99.90;;;;;;4939758;29;20987;-77
2022/11/16 11:25:27;;;;;;;0.20;0.20;;;14.30;99.90;;;;;;4961750;28;20107;-80
2022/11/16 11:28:07;;;;;;;0.20;0.20;;;14.30;99.90;;;;;;4982838;28;20029;-77
2022/11/16 11:30:34;;;;;;;1.52;1.50;;;14.40;99.90;;;;;;4998336;28;20040;-81
2022/11/16 11:33:00;;;;;;;0.15;0.15;;;14.30;99.90;;;;;;4998987;28;20030;-78
2022/11/16 11:35:29;;;;;;;0.20;0.20;;;14.30;99.90;;;;;;4966465;28;20029;-77
2022/11/16 11:37:58;;;;;;;0.13;0.13;;;14.30;99.90;;;;;;4982328;28;20018;-77
2022/11/16 11:40:32;;;;;;;0.20;0.20;;;14.30;99.90;;;;;;4998372;28;20040;-76
2022/11/16 11:43:03;;;;;;;0.50;0.50;;;14.20;99.90;;;;;;4998020;28;20034;-76
2022/11/16 11:45:40;;;;;;;0.20;0.20;;;14.30;99.90;;;;;;4978403;28;20111;-89
2022/11/16 11:48:35;;;;;;;0.20;0.20;;;14.20;99.90;;;;;;5065516;28;20016;-77
2022/11/16 11:51:04;;;;;;;0.20;0.20;;;14.20;99.90;;;;;;5060439;28;20020;-77
2022/11/16 11:53:55;;;;;;;0.10;0.10;;;14.10;99.90;;;;;;5061175;28;20048;-85
2022/11/16 11:56:22;;;;;;;0.45;0.45;;;14.00;99.90;;;;;;5059484;28;20021;-76
2022/11/16 11:58:50;;;;;;;0.20;0.20;;;14.00;99.90;;;;;;5058742;28;20276;-76
2022/11/16 12:01:42;;;;;;;0.13;0.13;;;13.90;99.90;;;;;;5059830;28;20056;-78
2022/11/16 12:04:51;;;;;;;0.20;0.20;;;13.90;99.90;;;;;;4978367;28;20039;-76
2022/11/16 12:07:32;;;;;;;1.95;1.85;;;13.80;99.90;;;;;;4903134;29;20027;-76
2022/11/16 12:10:06;;;;;;;0.15;0.15;;;13.50;99.90;;;;;;4902810;29;20032;-89
2022/11/16 12:12:49;;;;;;;0.77;0.77;;;13.80;99.90;;;;;;4902788;29;20452;-76
2022/11/16 12:15:50;;;;;;;1.10;1.10;;;12.60;99.90;;;;;;4885290;29;20047;-86
2022/11/16 12:18:22;;;;;;;0.20;0.20;;;13.80;99.90;;;;;;4901748;29;20039;-78
2022/11/16 12:20:54;;;;;;;0.20;0.20;;;13.80;99.90;;;;;;4902209;29;20032;-78
2022/11/16 12:24:00;;;;;;;0.57;0.57;;;13.80;99.90;;;;;;4902461;29;20052;-82
2022/11/16 12:26:47;;;;;;;0.20;0.20;;;13.70;99.90;;;;;;4900069;29;20026;-78
2022/11/16 12:29:26;;;;;;;0.20;0.20;;;13.70;99.90;;;;;;4904648;29;20152;-82
2022/11/16 12:32:11;;;;;;;0.20;0.20;;;13.60;99.90;;;;;;4900973;29;20024;-77
2022/11/16 12:35:15;;;;;;;2.28;2.17;;;13.60;99.90;;;;;;4899951;29;20577;-76
2022/11/16 12:37:53;;;;;;;0.20;0.20;;;13.60;99.90;;;;;;4899816;29;20622;-79
2022/11/16 12:40:22;;;;;;;0.98;0.98;;;13.60;99.90;;;;;;4925757;28;20041;-78
2022/11/16 12:43:15;;;;;;;0.20;0.20;;;13.50;99.90;;;;;;5057097;28;20047;-78
2022/11/16 12:46:09;;;;;;;0.10;0.10;;;13.60;99.90;;;;;;5057502;28;20024;-77
2022/11/16 12:49:01;;;;;;;1.10;1.10;;;13.60;99.90;;;;;;5059727;28;20597;-76
2022/11/16 12:51:53;;;;;;;0.50;0.50;;;13.60;99.90;;;;;;4978122;28;20073;-77
2022/11/16 12:54:46;;;;;;;3.40;3.20;;;13.50;99.90;;;;;;4966877;28;20093;-79
2022/11/16 12:57:18;;;;;;;1.17;1.17;;;13.50;99.90;;;;;;4978061;28;20031;-78
2022/11/16 13:00:09;;;;;;;2.60;2.45;;;13.50;99.90;;;;;;4978769;28;20027;-77
2022/11/16 13:03:00;;;;;;;2.05;0.63;;;13.50;99.90;;;;;;4978690;28;20023;-77
2022/11/16 13:05:42;;;;;;;3.30;3.03;;;12.70;99.90;;;;;;4963349;28;20484;-79
2022/11/16 13:08:25;;;;;;;13.05;12.10;;;13.50;99.90;;;;;;4980181;28;20030;-78
2022/11/16 13:11:00;;;;;;;13.60;12.85;;;13.50;99.90;;;;;;4983635;28;20026;-83
2022/11/16 13:13:30;;;;;;;24.05;5.53;;;13.50;99.90;;;;;;4963336;28;20054;-78
2022/11/16 13:15:58;;;;;;;15.02;13.68;;;13.50;99.90;;;;;;4981759;28;20038;-77
2022/11/16 13:18:26;;;;;;;0.52;0.52;;;13.40;99.90;;;;;;4980727;28;20021;-78
2022/11/16 13:21:24;;;;;;;6.18;5.75;;;13.50;99.90;;;;;;4965373;28;20606;-78
2022/11/16 13:24:06;;;;;;;1.02;1.02;;;13.40;99.90;;;;;;4964164;28;20052;-77
2022/11/16 13:26:52;;;;;;;3.65;3.45;;;13.40;99.90;;;;;;4964111;28;20566;-78
2022/11/16 13:29:33;;;;;;;6.20;5.68;;;13.40;99.90;;;;;;5049688;28;20067;-79
2022/11/16 13:32:06;;;;;;;1.40;1.40;;;13.40;99.90;;;;;;5062931;28;20033;-79
2022/11/16 13:34:36;;;;;;;1.63;1.52;;;13.40;99.90;;;;;;5062600;28;20021;-82
2022/11/16 13:37:39;;;;;;;1.85;1.75;;;13.40;99.90;;;;;;5063015;28;20032;-79
2022/11/16 13:40:05;;;;;;;0.20;0.20;;;13.40;99.90;;;;;;5063379;28;20110;-79
2022/11/16 13:42:33;;;;;;;0.52;0.52;;;13.60;99.90;;;;;;5061688;28;20029;-78
2022/11/16 13:45:21;;;;;;;0.10;0.10;;;13.50;99.90;;;;;;5064940;28;20025;-78
2022/11/16 13:47:57;;;;;;;1.50;1.50;;;13.50;99.90;;;;;;5064719;28;20024;-77
2022/11/16 13:50:47;;;;;;;0.20;0.20;;;13.50;99.90;;;;;;5067897;28;20079;-79
2022/11/16 13:53:28;;;;;;;8.70;8.15;;;13.40;99.90;;;;;;5063450;28;20016;-79